createdAt,value
2022-11-29T00:00:30.685Z,100676.31
2022-11-29T00:02:57.633Z,100676.22
2022-11-29T00:05:24.238Z,100674.53
2022-11-29T00:07:52.189Z,100674.53
2022-11-29T00:10:19.076Z,100678.84
2022-11-29T00:12:46.916Z,100676.06
2022-11-29T00:15:13.450Z,100685.63
2022-11-29T00:17:40.019Z,100683.84
2022-11-29T00:20:07.838Z,100681.13
2022-11-29T00:22:34.429Z,100664.50
2022-11-29T00:25:02.837Z,100670.34
2022-11-29T00:27:29.586Z,100673.97
2022-11-29T00:29:56.122Z,100671.53
2022-11-29T00:32:22.783Z,100679.69
2022-11-29T00:34:49.345Z,100671.06
2022-11-29T00:37:15.934Z,100676.06
2022-11-29T00:39:42.567Z,100679.69
2022-11-29T00:42:10.496Z,100678.94
2022-11-29T00:44:36.987Z,100685.16
2022-11-29T00:47:03.624Z,100676.22
2022-11-29T00:49:30.118Z,100683.25
2022-11-29T00:51:56.710Z,100677.38
2022-11-29T00:54:23.260Z,100674.75
2022-11-29T00:56:49.834Z,100676.31
2022-11-29T00:59:17.697Z,100675.38
2022-11-29T01:01:44.529Z,100671.91
2022-11-29T01:04:11.209Z,100653.69
2022-11-29T01:06:37.818Z,100675.38
2022-11-29T01:09:04.664Z,100654.91
2022-11-29T01:11:31.241Z,100673.34
2022-11-29T01:14:00.350Z,100676.06
2022-11-29T01:16:29.689Z,100680.50
2022-11-29T01:18:56.479Z,100683.00
2022-11-29T01:21:24.541Z,100678.59
2022-11-29T01:23:53.233Z,100684.78
2022-11-29T01:26:22.210Z,100683.13
2022-11-29T01:28:52.280Z,100681.31
2022-11-29T01:31:21.277Z,100683.94
2022-11-29T01:33:53.241Z,100666.63
2022-11-29T01:36:19.809Z,100663.16
2022-11-29T01:38:46.615Z,100687.66
2022-11-29T01:41:16.382Z,100684.31
2022-11-29T01:43:59.590Z,100686.47
2022-11-29T01:46:27.618Z,100690.91
2022-11-29T01:49:00.165Z,100699.63
2022-11-29T01:51:28.202Z,100696.88
2022-11-29T01:53:55.208Z,100690.19
2022-11-29T01:56:23.421Z,100694.16
2022-11-29T01:58:50.172Z,100692.34
2022-11-29T02:01:16.898Z,100696.63
2022-11-29T02:03:43.541Z,100702.75
2022-11-29T02:06:11.559Z,100705.38
2022-11-29T02:08:40.607Z,100696.53
2022-11-29T02:11:37.701Z,100702.63
2022-11-29T02:14:18.417Z,100688.50
2022-11-29T02:16:56.881Z,100706.09
2022-11-29T02:19:47.176Z,100704.31
2022-11-29T02:22:20.679Z,100700.72
2022-11-29T02:25:06.904Z,100694.25
2022-11-29T02:28:07.520Z,100707.66
2022-11-29T02:31:04.257Z,100706.00
2022-11-29T02:33:53.456Z,100709.56
2022-11-29T02:36:45.257Z,100710.50
2022-11-29T02:39:39.249Z,100714.09
2022-11-29T02:42:26.618Z,100710.50
2022-11-29T02:45:07.926Z,100708.72
2022-11-29T02:47:51.383Z,100707.88
2022-11-29T02:50:29.806Z,100704.31
2022-11-29T02:53:05.446Z,100700.34
2022-11-29T02:55:37.268Z,100714.47
2022-11-29T02:58:13.675Z,100723.19
2022-11-29T03:00:50.006Z,100716.16
2022-11-29T03:03:23.361Z,100717.84
2022-11-29T03:05:57.415Z,100701.50
2022-11-29T03:08:34.200Z,100716.88
2022-11-29T03:11:09.265Z,100716.16
2022-11-29T03:13:48.059Z,100717.84
2022-11-29T03:16:28.342Z,100718.69
2022-11-29T03:19:05.371Z,100720.47
2022-11-29T03:21:41.038Z,100728.25
2022-11-29T03:24:15.687Z,100731.69
2022-11-29T03:26:45.455Z,100717.94
2022-11-29T03:29:19.031Z,100711.94
2022-11-29T03:31:52.571Z,100734.94
2022-11-29T03:34:29.864Z,100726.22
2022-11-29T03:37:06.107Z,100727.06
2022-11-29T03:39:41.347Z,100722.25
2022-11-29T03:42:13.119Z,100737.56
2022-11-29T03:44:46.654Z,100741.03
2022-11-29T03:47:17.924Z,100744.50
2022-11-29T03:49:49.246Z,100746.28
2022-11-29T03:52:21.288Z,100748.94
2022-11-29T03:55:00.419Z,100748.81
2022-11-29T03:57:34.180Z,100748.81
2022-11-29T04:00:05.441Z,100760.16
2022-11-29T04:03:11.200Z,100746.06
2022-11-29T04:05:55.749Z,100755.72
2022-11-29T04:08:59.678Z,100758.50
2022-11-29T04:11:50.660Z,100754.06
2022-11-29T04:14:31.107Z,100734.16
2022-11-29T04:17:17.308Z,100753.44
2022-11-29T04:20:05.304Z,100763.13
2022-11-29T04:22:54.856Z,100766.69
2022-11-29T04:25:34.421Z,100760.59
2022-11-29T04:28:31.917Z,100762.06
2022-11-29T04:31:09.357Z,100766.25
2022-11-29T04:34:03.268Z,100776.44
2022-11-29T04:36:48.712Z,100774.66
2022-11-29T04:39:45.539Z,100768.31
2022-11-29T04:42:35.976Z,100778.72
2022-11-29T04:45:35.199Z,100782.94
2022-11-29T04:48:21.032Z,100785.41
2022-11-29T04:50:57.860Z,100778.72
2022-11-29T04:53:34.868Z,100780.41
2022-11-29T04:56:12.443Z,100783.41
2022-11-29T04:58:44.528Z,100796.44
2022-11-29T05:01:21.596Z,100796.31
2022-11-29T05:03:57.236Z,100802.31
2022-11-29T05:06:29.065Z,100803.16
2022-11-29T05:09:07.074Z,100811.16
2022-11-29T05:11:49.977Z,100812.84
2022-11-29T05:14:25.112Z,100812.00
2022-11-29T05:17:09.375Z,100814.53
2022-11-29T05:19:56.200Z,100818.00
2022-11-29T05:22:32.822Z,100789.44
2022-11-29T05:25:18.868Z,100815.69
2022-11-29T05:27:48.652Z,100821.78
2022-11-29T05:30:17.935Z,100825.16
2022-11-29T05:32:56.002Z,100816.13
2022-11-29T05:35:51.581Z,100818.56
2022-11-29T05:38:38.344Z,100829.66
2022-11-29T05:41:20.173Z,100833.97
2022-11-29T05:43:57.925Z,100839.88
2022-11-29T05:46:30.839Z,100839.75
2022-11-29T05:49:10.276Z,100838.78
2022-11-29T05:51:45.713Z,100837.88
2022-11-29T05:54:24.927Z,100842.25
2022-11-29T05:57:05.123Z,100851.09
2022-11-29T05:59:34.206Z,100846.50
2022-11-29T06:02:09.728Z,100848.16
2022-11-29T06:04:50.941Z,100844.56
2022-11-29T06:07:22.911Z,100846.25
2022-11-29T06:10:00.540Z,100853.94
2022-11-29T06:12:28.701Z,100861.00
2022-11-29T06:15:39.980Z,100861.81
2022-11-29T06:18:27.214Z,100861.81
2022-11-29T06:21:10.838Z,100860.84
2022-11-29T06:23:54.639Z,100867.09
2022-11-29T06:26:47.637Z,100874.00
2022-11-29T06:29:23.754Z,100874.75
2022-11-29T06:31:58.566Z,100878.09
2022-11-29T06:34:33.001Z,100872.75
2022-11-29T06:37:05.497Z,100877.16
2022-11-29T06:39:32.689Z,100880.63
2022-11-29T06:41:59.177Z,100885.75
2022-11-29T06:44:26.348Z,100885.53
2022-11-29T06:47:00.949Z,100872.22
2022-11-29T06:49:30.018Z,100891.75
2022-11-29T06:52:19.273Z,100891.84
2022-11-29T06:54:58.256Z,100894.38
2022-11-29T06:57:34.172Z,100897.25
2022-11-29T07:00:06.096Z,100903.13
2022-11-29T07:02:44.335Z,100905.38
2022-11-29T07:05:19.971Z,100912.22
2022-11-29T07:07:48.977Z,100862.19
2022-11-29T07:10:17.837Z,100900.09
2022-11-29T07:12:45.872Z,100904.69
2022-11-29T07:15:15.218Z,100913.09
2022-11-29T07:17:53.767Z,100915.56
2022-11-29T07:20:26.433Z,100864.34
2022-11-29T07:23:09.357Z,100910.94
2022-11-29T07:25:46.989Z,100913.78
2022-11-29T07:28:27.148Z,100918.84
2022-11-29T07:31:05.419Z,100920.53
2022-11-29T07:33:43.270Z,100918.72
2022-11-29T07:36:18.148Z,100914.63
2022-11-29T07:38:57.028Z,100909.50
2022-11-29T07:41:32.577Z,100928.91
2022-11-29T07:44:08.444Z,100922.81
2022-11-29T07:46:35.008Z,100928.56
2022-11-29T07:49:01.516Z,100928.19
2022-11-29T07:51:28.146Z,100920.28
2022-11-29T07:53:56.036Z,100927.34
2022-11-29T07:56:22.764Z,100931.81
2022-11-29T07:58:49.364Z,100947.47
2022-11-29T08:01:16.009Z,100951.78
2022-11-29T08:03:42.539Z,100944.00
2022-11-29T08:06:09.736Z,100960.44
2022-11-29T08:08:40.704Z,100946.19
2022-11-29T08:11:12.751Z,100951.44
2022-11-29T08:13:39.341Z,100949.78
2022-11-29T08:16:06.653Z,100928.81
2022-11-29T08:18:33.256Z,100962.34
2022-11-29T08:21:05.553Z,100948.00
2022-11-29T08:23:32.087Z,100950.94
2022-11-29T08:25:59.804Z,100972.50
2022-11-29T08:28:27.761Z,100969.66
2022-11-29T08:31:01.086Z,100957.16
2022-11-29T08:33:27.786Z,100910.41
2022-11-29T08:35:54.302Z,100983.31
2022-11-29T08:38:20.897Z,100982.13
2022-11-29T08:40:47.626Z,100983.69
2022-11-29T08:43:14.255Z,100987.78
2022-11-29T08:45:42.162Z,100988.41
2022-11-29T08:48:08.749Z,100993.56
2022-11-29T08:50:35.255Z,100994.41
2022-11-29T08:53:01.898Z,100995.22
2022-11-29T08:55:32.665Z,100992.38
2022-11-29T08:58:04.381Z,101001.00
2022-11-29T09:00:31.632Z,101004.59
2022-11-29T09:03:01.100Z,101017.41
2022-11-29T09:05:27.707Z,101012.88
2022-11-29T09:07:54.254Z,101017.19
2022-11-29T09:10:20.861Z,101017.88
2022-11-29T09:12:47.374Z,101024.72
2022-11-29T09:15:13.901Z,101019.94
2022-11-29T09:17:40.375Z,101018.25
2022-11-29T09:20:09.285Z,101028.44
2022-11-29T09:22:35.786Z,101033.69
2022-11-29T09:25:02.489Z,101037.91
2022-11-29T09:27:28.998Z,101039.25
2022-11-29T09:29:55.608Z,101036.25
2022-11-29T09:32:22.106Z,101041.53
2022-11-29T09:34:48.795Z,101049.06
2022-11-29T09:37:16.632Z,101046.22
2022-11-29T09:39:43.220Z,101046.69
2022-11-29T09:42:23.877Z,101049.34
2022-11-29T09:44:58.440Z,101027.00
2022-11-29T09:47:36.829Z,101033.63
2022-11-29T09:50:19.396Z,101060.97
2022-11-29T09:52:54.069Z,101064.19
2022-11-29T09:55:38.889Z,101059.97
2022-11-29T09:58:10.396Z,101063.69
2022-11-29T10:00:45.213Z,101067.28
2022-11-29T10:03:17.403Z,101070.81
2022-11-29T10:05:47.636Z,101040.84
2022-11-29T10:08:21.756Z,101073.72
2022-11-29T10:10:50.689Z,101079.81
2022-11-29T10:13:22.430Z,101037.59
2022-11-29T10:15:52.009Z,101077.06
2022-11-29T10:18:23.154Z,101051.16
2022-11-29T10:20:52.234Z,101075.09
2022-11-29T10:23:24.082Z,101047.88
2022-11-29T10:25:53.324Z,101081.25
2022-11-29T10:28:22.150Z,101078.03
2022-11-29T10:30:49.237Z,101050.31
2022-11-29T10:33:19.324Z,101079.84
2022-11-29T10:35:47.158Z,101082.00
2022-11-29T10:38:30.197Z,101080.66
2022-11-29T10:41:05.667Z,101080.31
2022-11-29T10:43:32.314Z,101060.91
2022-11-29T10:45:59.123Z,101082.25
2022-11-29T10:48:28.322Z,101081.53
2022-11-29T10:50:54.889Z,101080.31
2022-11-29T10:53:25.384Z,101083.47
2022-11-29T10:55:58.957Z,101089.22
2022-11-29T10:58:28.994Z,101068.81
2022-11-29T11:00:58.184Z,101086.47
2022-11-29T11:03:33.437Z,101079.38
2022-11-29T11:06:04.082Z,101060.91
2022-11-29T11:08:32.530Z,101075.56
2022-11-29T11:11:01.760Z,101067.03
2022-11-29T11:13:32.416Z,101085.97
2022-11-29T11:16:14.347Z,101091.06
2022-11-29T11:18:41.103Z,101082.41
2022-11-29T11:21:10.497Z,101090.09
2022-11-29T11:23:45.790Z,101083.84
2022-11-29T11:26:14.473Z,101077.84
2022-11-29T11:28:49.086Z,101064.84
2022-11-29T11:31:25.086Z,101050.00
2022-11-29T11:33:51.776Z,101088.78
2022-11-29T11:36:23.736Z,101085.38
2022-11-29T11:38:52.035Z,101088.59
2022-11-29T11:41:22.629Z,101050.34
2022-11-29T11:43:57.256Z,101086.94
2022-11-29T11:46:44.123Z,101086.22
2022-11-29T11:49:12.693Z,101088.97
2022-11-29T11:51:42.290Z,101086.94
2022-11-29T11:54:14.528Z,101077.09
2022-11-29T11:56:41.334Z,101090.53
2022-11-29T11:59:17.894Z,101088.59
2022-11-29T12:01:44.677Z,101088.84
2022-11-29T12:04:15.544Z,101077.94
2022-11-29T12:06:48.668Z,101082.50
2022-11-29T12:09:24.989Z,101094.34
2022-11-29T12:12:00.456Z,101089.34
2022-11-29T12:14:36.689Z,101090.75
2022-11-29T12:17:15.525Z,101085.31
2022-11-29T12:19:59.034Z,101093.03
2022-11-29T12:22:33.033Z,101102.53
2022-11-29T12:25:05.275Z,101114.25
2022-11-29T12:27:32.129Z,101111.75
2022-11-29T12:30:00.209Z,101118.66
2022-11-29T12:32:48.734Z,101111.00
2022-11-29T12:35:49.382Z,101119.84
2022-11-29T12:38:33.131Z,101114.56
2022-11-29T12:41:11.502Z,101125.81
2022-11-29T12:43:52.586Z,101125.47
2022-11-29T12:46:24.293Z,101130.50
2022-11-29T12:48:56.854Z,101140.66
2022-11-29T12:51:31.902Z,101138.97
2022-11-29T12:54:14.670Z,101147.63
2022-11-29T12:56:48.475Z,101149.22
2022-11-29T12:59:25.368Z,101148.97
2022-11-29T13:02:13.916Z,101149.81
2022-11-29T13:04:46.098Z,101150.38
2022-11-29T13:07:22.602Z,101152.88
2022-11-29T13:10:02.832Z,101114.41
2022-11-29T13:12:36.504Z,101161.03
2022-11-29T13:15:06.823Z,101166.28
2022-11-29T13:17:42.443Z,101165.34
2022-11-29T13:20:30.684Z,101163.78
2022-11-29T13:23:04.978Z,101167.13
2022-11-29T13:25:36.915Z,101167.28
2022-11-29T13:28:07.132Z,101177.56
2022-11-29T13:30:34.861Z,101175.69
2022-11-29T13:33:12.040Z,101172.94
2022-11-29T13:35:45.801Z,101185.38
2022-11-29T13:38:19.460Z,101176.63
2022-11-29T13:40:56.610Z,101177.47
2022-11-29T13:43:30.750Z,101181.78
2022-11-29T13:46:06.424Z,101183.59
2022-11-29T13:48:45.669Z,101186.13
2022-11-29T13:51:30.509Z,101177.84
2022-11-29T13:53:59.455Z,101186.72
2022-11-29T13:56:32.856Z,101174.00
2022-11-29T13:59:00.844Z,101161.72
2022-11-29T14:01:28.422Z,101184.09
2022-11-29T14:04:06.126Z,101190.41
2022-11-29T14:06:34.807Z,101191.50
2022-11-29T14:09:23.829Z,101188.22
2022-11-29T14:11:58.229Z,101187.97
2022-11-29T14:14:28.911Z,101195.88
2022-11-29T14:16:59.329Z,101192.97
2022-11-29T14:19:33.520Z,101193.81
2022-11-29T14:22:17.290Z,101172.31
2022-11-29T14:24:56.668Z,101194.66
2022-11-29T14:27:46.304Z,101198.97
2022-11-29T14:30:47.200Z,101192.13
2022-11-29T14:33:58.385Z,101198.34
2022-11-29T14:36:43.484Z,101200.25
2022-11-29T14:39:31.031Z,101196.16
2022-11-29T14:42:09.597Z,101167.81
2022-11-29T14:44:44.251Z,101198.78
2022-11-29T14:47:20.310Z,101196.16
2022-11-29T14:49:47.069Z,101177.91
2022-11-29T14:52:26.099Z,101210.81
2022-11-29T14:54:57.284Z,101209.13
2022-11-29T14:57:53.393Z,101206.47
2022-11-29T15:00:21.606Z,101208.38
2022-11-29T15:02:50.806Z,101184.94
2022-11-29T15:05:20.502Z,101210.16
2022-11-29T15:07:54.637Z,101214.59
2022-11-29T15:10:25.450Z,101161.72
2022-11-29T15:12:53.503Z,101215.88
2022-11-29T15:15:36.389Z,101220.31
2022-11-29T15:18:16.399Z,101214.53
2022-11-29T15:21:07.285Z,101217.41
2022-11-29T15:23:42.274Z,101210.06
2022-11-29T15:26:17.554Z,101222.16
2022-11-29T15:28:44.625Z,101217.31
2022-11-29T15:31:14.721Z,101213.97
2022-11-29T15:33:43.691Z,101205.44
2022-11-29T15:36:15.967Z,101187.25
2022-11-29T15:38:45.965Z,101217.97
2022-11-29T15:41:19.651Z,101202.72
2022-11-29T15:43:51.025Z,101219.97
2022-11-29T15:46:24.357Z,101220.41
2022-11-29T15:48:50.919Z,101223.28
2022-11-29T15:51:24.682Z,101225.59
2022-11-29T15:54:12.115Z,101232.03
2022-11-29T15:56:45.097Z,101209.84
2022-11-29T15:59:18.524Z,101233.00
2022-11-29T16:01:48.106Z,101231.97
2022-11-29T16:04:18.563Z,101234.16
2022-11-29T16:06:46.958Z,101240.78
2022-11-29T16:09:17.452Z,101222.94
2022-11-29T16:11:45.184Z,101250.44
2022-11-29T16:14:18.762Z,101249.25
2022-11-29T16:16:47.677Z,101251.56
2022-11-29T16:19:30.137Z,101251.13
2022-11-29T16:22:21.910Z,101257.00
2022-11-29T16:25:02.512Z,101249.06
2022-11-29T16:27:31.909Z,101258.19
2022-11-29T16:29:58.616Z,101260.28
2022-11-29T16:32:28.867Z,101258.81
2022-11-29T16:34:57.007Z,101265.94
2022-11-29T16:37:25.669Z,101272.34
2022-11-29T16:39:59.315Z,101262.88
2022-11-29T16:42:27.438Z,101262.31
2022-11-29T16:45:31.227Z,101262.72
2022-11-29T16:47:57.923Z,101256.88
2022-11-29T16:50:25.653Z,101275.41
2022-11-29T16:52:56.552Z,101271.50
2022-11-29T16:55:24.881Z,101286.59
2022-11-29T16:57:51.418Z,101281.53
2022-11-29T17:00:30.249Z,101290.56
2022-11-29T17:02:57.023Z,101288.13
2022-11-29T17:05:23.712Z,101269.56
2022-11-29T17:07:53.340Z,101282.28
2022-11-29T17:10:23.707Z,101267.31
2022-11-29T17:12:51.646Z,101278.94
2022-11-29T17:15:18.248Z,101277.88
2022-11-29T17:17:44.890Z,101284.38
2022-11-29T17:20:12.468Z,101282.69
2022-11-29T17:22:38.977Z,101287.94
2022-11-29T17:25:06.169Z,101273.41
2022-11-29T17:27:32.742Z,101280.97
2022-11-29T17:30:00.621Z,101284.53
2022-11-29T17:32:27.332Z,101280.25
2022-11-29T17:34:53.943Z,101286.44
2022-11-29T17:37:20.463Z,101286.44
2022-11-29T17:39:47.190Z,101283.81
2022-11-29T17:42:13.837Z,101294.31
2022-11-29T17:44:40.335Z,101290.63
2022-11-29T17:47:08.214Z,101289.91
2022-11-29T17:49:34.857Z,101265.66
2022-11-29T17:52:01.450Z,101293.00
2022-11-29T17:54:27.992Z,101290.75
2022-11-29T17:56:55.048Z,101289.34
2022-11-29T17:59:21.568Z,101294.13
2022-11-29T18:01:48.183Z,101293.56
2022-11-29T18:04:16.177Z,101289.53
2022-11-29T18:06:42.693Z,101285.75
2022-11-29T18:09:10.520Z,101296.16
2022-11-29T18:11:47.104Z,101299.16
2022-11-29T18:14:16.222Z,101287.06
2022-11-29T18:16:43.112Z,101282.53
2022-11-29T18:19:13.220Z,101304.84
2022-11-29T18:21:41.318Z,101309.59
2022-11-29T18:24:08.986Z,101308.06
2022-11-29T18:26:36.527Z,101307.41
2022-11-29T18:29:03.733Z,101311.81
2022-11-29T18:31:32.370Z,101306.56
2022-11-29T18:34:00.395Z,101312.81
2022-11-29T18:36:28.672Z,101317.22
2022-11-29T18:38:58.215Z,101280.41
2022-11-29T18:41:25.383Z,101318.88
2022-11-29T18:43:56.946Z,101325.41
2022-11-29T18:46:23.764Z,101325.88
2022-11-29T18:48:50.338Z,101329.41
2022-11-29T18:51:18.708Z,101318.63
2022-11-29T18:53:45.982Z,101323.78
2022-11-29T18:56:16.314Z,101317.94
2022-11-29T18:58:43.766Z,101334.59
2022-11-29T19:01:12.628Z,101328.00
2022-11-29T19:03:41.251Z,101332.50
2022-11-29T19:06:10.043Z,101348.22
2022-11-29T19:08:37.797Z,101342.22
2022-11-29T19:11:05.228Z,101346.69
2022-11-29T19:13:33.774Z,101328.75
2022-11-29T19:16:01.369Z,101349.38
2022-11-29T19:18:28.356Z,101346.84
2022-11-29T19:21:03.605Z,101352.06
2022-11-29T19:23:30.287Z,101347.03
2022-11-29T19:26:01.754Z,101354.78
2022-11-29T19:28:28.397Z,101350.50
2022-11-29T19:30:56.471Z,101351.41
2022-11-29T19:33:23.152Z,101350.56
2022-11-29T19:35:49.721Z,101343.78
2022-11-29T19:38:16.521Z,101355.47
2022-11-29T19:40:43.375Z,101358.78
2022-11-29T19:43:10.015Z,101351.69
2022-11-29T19:45:38.734Z,101358.84
2022-11-29T19:48:06.891Z,101362.31
2022-11-29T19:50:33.427Z,101361.47
2022-11-29T19:53:00.022Z,101200.16
2022-11-29T19:55:26.536Z,101351.91
2022-11-29T19:57:55.352Z,101358.00
2022-11-29T20:00:22.371Z,101357.94
2022-11-29T20:02:49.013Z,101366.63
2022-11-29T20:05:17.164Z,101363.75
2022-11-29T20:07:43.792Z,101367.13
2022-11-29T20:10:11.152Z,101306.94
2022-11-29T20:12:37.780Z,101366.88
2022-11-29T20:15:05.320Z,101370.25
2022-11-29T20:17:31.892Z,101368.38
2022-11-29T20:19:58.446Z,101369.91
2022-11-29T20:22:26.420Z,101367.28
2022-11-29T20:24:52.951Z,101371.75
2022-11-29T20:27:19.558Z,101371.00
2022-11-29T20:29:46.343Z,101372.88
2022-11-29T20:32:13.194Z,101371.00
2022-11-29T20:34:40.771Z,101335.53
2022-11-29T20:37:29.876Z,101335.69
2022-11-29T20:39:59.950Z,101346.88
2022-11-29T20:42:46.504Z,101364.03
2022-11-29T20:45:15.098Z,101339.59
2022-11-29T20:47:49.473Z,101372.19
2022-11-29T20:50:21.736Z,101373.88
2022-11-29T20:53:04.951Z,101381.66
2022-11-29T20:55:31.757Z,101347.59
2022-11-29T20:57:58.277Z,101379.72
2022-11-29T21:00:24.949Z,101384.59
2022-11-29T21:02:51.505Z,101385.19
2022-11-29T21:05:18.683Z,101394.66
2022-11-29T21:07:45.281Z,101389.41
2022-11-29T21:10:14.045Z,101393.72
2022-11-29T21:12:41.262Z,101384.81
2022-11-29T21:15:09.931Z,101329.03
2022-11-29T21:17:37.075Z,101372.84
2022-11-29T21:20:04.674Z,101380.91
2022-11-29T21:22:40.817Z,101386.00
2022-11-29T21:25:15.368Z,101385.81
2022-11-29T21:27:42.421Z,101383.09
2022-11-29T21:30:17.463Z,101386.28
2022-11-29T21:32:44.783Z,101385.44
2022-11-29T21:35:11.440Z,101385.38
2022-11-29T21:37:38.305Z,101384.25
2022-11-29T21:40:06.302Z,101341.44
2022-11-29T21:42:34.260Z,101385.78
2022-11-29T21:45:00.766Z,101387.47
2022-11-29T21:47:27.371Z,101391.66
2022-11-29T21:49:54.684Z,101392.53
2022-11-29T21:52:22.982Z,101393.38
2022-11-29T21:54:49.944Z,101394.22
2022-11-29T21:57:16.694Z,101395.06
2022-11-29T21:59:44.725Z,101388.97
2022-11-29T22:02:11.446Z,101396.66
2022-11-29T22:04:38.068Z,101393.09
2022-11-29T22:07:04.689Z,101398.25
2022-11-29T22:09:31.204Z,101390.28
2022-11-29T22:11:57.802Z,101385.78
2022-11-29T22:14:24.439Z,101393.56
2022-11-29T22:16:54.080Z,101402.28
2022-11-29T22:19:23.000Z,101397.03
2022-11-29T22:21:51.401Z,101392.72
2022-11-29T22:24:20.563Z,101390.09
2022-11-29T22:26:47.602Z,101396.28
2022-11-29T22:29:14.791Z,101390.94
2022-11-29T22:31:42.222Z,101384.75
2022-11-29T22:34:11.109Z,101387.22
2022-11-29T22:36:38.385Z,101387.97
2022-11-29T22:39:06.017Z,101386.94
2022-11-29T22:41:33.653Z,101385.16
2022-11-29T22:44:00.315Z,101390.22
2022-11-29T22:46:28.047Z,101392.75
2022-11-29T22:48:56.596Z,101391.81
2022-11-29T22:51:26.685Z,101388.16
2022-11-29T22:53:55.017Z,101394.25
2022-11-29T22:56:22.526Z,101393.31
2022-11-29T22:58:49.076Z,101387.97
2022-11-29T23:01:17.519Z,101395.78
2022-11-29T23:03:46.206Z,101391.38
2022-11-29T23:06:14.280Z,101389.56
2022-11-29T23:08:43.582Z,101383.75
2022-11-29T23:11:12.010Z,101396.34
2022-11-29T23:13:41.399Z,101401.50
2022-11-29T23:16:09.912Z,101403.16
2022-11-29T23:18:37.005Z,101413.78
2022-11-29T23:21:06.240Z,101401.75
2022-11-29T23:23:32.855Z,101411.81
2022-11-29T23:26:01.398Z,101391.63
2022-11-29T23:28:28.775Z,101423.00
2022-11-29T23:30:55.604Z,101418.47
2022-11-29T23:33:22.813Z,101421.09
2022-11-29T23:35:49.610Z,101425.41
2022-11-29T23:38:17.374Z,101424.41
2022-11-29T23:40:44.276Z,101398.75
2022-11-29T23:43:12.132Z,101421.66
2022-11-29T23:45:39.238Z,101409.38
2022-11-29T23:48:06.074Z,101418.09
2022-11-29T23:50:32.633Z,101412.00
2022-11-29T23:52:59.330Z,101410.22
2022-11-29T23:55:26.274Z,101404.97
2022-11-29T23:57:52.845Z,101411.91
